sensor_id;sensor_type;location;lat;lon;timestamp;P1;durP1;ratioP1;P2;durP2;ratioP2
68985;SDS011;56035;37.534;-122.308;2023-04-25T00:00:32;10.43;;;2.42;;
68985;SDS011;56035;37.534;-122.308;2023-04-25T00:02:58;12.98;;;2.65;;
68985;SDS011;56035;37.534;-122.308;2023-04-25T00:05:25;10.82;;;2.60;;
68985;SDS011;56035;37.534;-122.308;2023-04-25T00:07:52;8.80;;;2.43;;
68985;SDS011;56035;37.534;-122.308;2023-04-25T00:10:19;9.60;;;2.25;;
68985;SDS011;56035;37.534;-122.308;2023-04-25T00:12:45;8.70;;;2.20;;
68985;SDS011;56035;37.534;-122.308;2023-04-25T00:15:13;7.87;;;2.30;;
68985;SDS011;56035;37.534;-122.308;2023-04-25T00:17:39;11.80;;;2.65;;
68985;SDS011;56035;37.534;-122.308;2023-04-25T00:20:06;8.32;;;2.45;;
68985;SDS011;56035;37.534;-122.308;2023-04-25T00:22:36;11.10;;;2.30;;
68985;SDS011;56035;37.534;-122.308;2023-04-25T00:25:03;10.20;;;2.50;;
68985;SDS011;56035;37.534;-122.308;2023-04-25T00:27:31;14.90;;;4.57;;
68985;SDS011;56035;37.534;-122.308;2023-04-25T00:29:57;22.10;;;3.85;;
68985;SDS011;56035;37.534;-122.308;2023-04-25T00:32:24;14.57;;;3.58;;
68985;SDS011;56035;37.534;-122.308;2023-04-25T00:34:50;17.73;;;3.90;;
68985;SDS011;56035;37.534;-122.308;2023-04-25T00:37:16;21.67;;;3.83;;
68985;SDS011;56035;37.534;-122.308;2023-04-25T00:39:43;14.13;;;3.47;;
68985;SDS011;56035;37.534;-122.308;2023-04-25T00:42:09;14.38;;;3.03;;
68985;SDS011;56035;37.534;-122.308;2023-04-25T00:44:36;15.90;;;3.95;;
68985;SDS011;56035;37.534;-122.308;2023-04-25T00:47:03;11.70;;;3.60;;
68985;SDS011;56035;37.534;-122.308;2023-04-25T00:49:30;10.47;;;3.07;;
68985;SDS011;56035;37.534;-122.308;2023-04-25T00:51:56;14.52;;;3.70;;
68985;SDS011;56035;37.534;-122.308;2023-04-25T00:54:23;19.00;;;4.57;;
68985;SDS011;56035;37.534;-122.308;2023-04-25T00:59:16;14.67;;;3.57;;
68985;SDS011;56035;37.534;-122.308;2023-04-25T01:01:43;16.17;;;4.00;;
68985;SDS011;56035;37.534;-122.308;2023-04-25T01:04:11;15.10;;;3.50;;
68985;SDS011;56035;37.534;-122.308;2023-04-25T01:06:38;15.07;;;3.23;;
68985;SDS011;56035;37.534;-122.308;2023-04-25T01:09:05;16.13;;;4.50;;
68985;SDS011;56035;37.534;-122.308;2023-04-25T01:11:32;15.87;;;3.53;;
68985;SDS011;56035;37.534;-122.308;2023-04-25T01:13:59;14.43;;;3.22;;
68985;SDS011;56035;37.534;-122.308;2023-04-25T01:18:52;16.40;;;3.43;;
68985;SDS011;56035;37.534;-122.308;2023-04-25T01:21:18;16.73;;;3.35;;
68985;SDS011;56035;37.534;-122.308;2023-04-25T01:23:44;15.50;;;4.07;;
68985;SDS011;56035;37.534;-122.308;2023-04-25T01:26:11;14.85;;;3.58;;
68985;SDS011;56035;37.534;-122.308;2023-04-25T01:28:38;17.58;;;3.97;;
68985;SDS011;56035;37.534;-122.308;2023-04-25T01:31:08;17.00;;;3.67;;
68985;SDS011;56035;37.534;-122.308;2023-04-25T01:33:35;18.17;;;3.45;;
68985;SDS011;56035;37.534;-122.308;2023-04-25T01:36:01;15.93;;;3.55;;
68985;SDS011;56035;37.534;-122.308;2023-04-25T01:38:27;13.32;;;3.05;;
68985;SDS011;56035;37.534;-122.308;2023-04-25T01:40:54;18.58;;;3.40;;
68985;SDS011;56035;37.534;-122.308;2023-04-25T01:43:20;17.33;;;3.63;;
68985;SDS011;56035;37.534;-122.308;2023-04-25T01:45:47;21.40;;;3.28;;
68985;SDS011;56035;37.534;-122.308;2023-04-25T01:48:15;15.90;;;3.80;;
68985;SDS011;56035;37.534;-122.308;2023-04-25T01:50:41;13.07;;;3.97;;
68985;SDS011;56035;37.534;-122.308;2023-04-25T01:55:36;18.30;;;3.70;;
68985;SDS011;56035;37.534;-122.308;2023-04-25T01:58:02;23.77;;;5.00;;
68985;SDS011;56035;37.534;-122.308;2023-04-25T02:00:34;19.63;;;3.90;;
68985;SDS011;56035;37.534;-122.308;2023-04-25T02:03:04;24.37;;;4.53;;
68985;SDS011;56035;37.534;-122.308;2023-04-25T02:05:37;16.23;;;3.30;;
68985;SDS011;56035;37.534;-122.308;2023-04-25T02:08:05;18.50;;;3.63;;
68985;SDS011;56035;37.534;-122.308;2023-04-25T02:10:32;16.17;;;3.30;;
68985;SDS011;56035;37.534;-122.308;2023-04-25T02:12:59;19.40;;;4.50;;
68985;SDS011;56035;37.534;-122.308;2023-04-25T02:15:25;16.40;;;3.42;;
68985;SDS011;56035;37.534;-122.308;2023-04-25T02:17:52;16.35;;;3.35;;
68985;SDS011;56035;37.534;-122.308;2023-04-25T02:20:20;17.75;;;4.15;;
68985;SDS011;56035;37.534;-122.308;2023-04-25T02:22:48;14.47;;;3.57;;
68985;SDS011;56035;37.534;-122.308;2023-04-25T02:25:14;19.55;;;4.03;;
68985;SDS011;56035;37.534;-122.308;2023-04-25T02:27:41;19.10;;;4.07;;
68985;SDS011;56035;37.534;-122.308;2023-04-25T02:30:08;20.70;;;3.50;;
68985;SDS011;56035;37.534;-122.308;2023-04-25T02:32:34;17.80;;;3.60;;
68985;SDS011;56035;37.534;-122.308;2023-04-25T02:35:01;20.70;;;4.10;;
68985;SDS011;56035;37.534;-122.308;2023-04-25T02:37:31;19.30;;;4.57;;
68985;SDS011;56035;37.534;-122.308;2023-04-25T02:39:59;17.30;;;3.50;;
68985;SDS011;56035;37.534;-122.308;2023-04-25T02:42:25;19.35;;;3.55;;
68985;SDS011;56035;37.534;-122.308;2023-04-25T02:47:18;18.77;;;3.67;;
68985;SDS011;56035;37.534;-122.308;2023-04-25T02:49:45;19.40;;;3.85;;
68985;SDS011;56035;37.534;-122.308;2023-04-25T02:52:11;14.15;;;3.83;;
68985;SDS011;56035;37.534;-122.308;2023-04-25T02:54:38;13.63;;;3.47;;
68985;SDS011;56035;37.534;-122.308;2023-04-25T02:57:06;13.50;;;3.30;;
68985;SDS011;56035;37.534;-122.308;2023-04-25T02:59:32;19.85;;;3.85;;
68985;SDS011;56035;37.534;-122.308;2023-04-25T03:01:59;20.20;;;3.38;;
68985;SDS011;56035;37.534;-122.308;2023-04-25T03:04:25;17.38;;;3.50;;
68985;SDS011;56035;37.534;-122.308;2023-04-25T03:06:52;16.98;;;4.10;;
68985;SDS011;56035;37.534;-122.308;2023-04-25T03:09:18;23.60;;;4.32;;
68985;SDS011;56035;37.534;-122.308;2023-04-25T03:11:45;17.13;;;3.55;;
68985;SDS011;56035;37.534;-122.308;2023-04-25T03:14:12;22.83;;;4.18;;
68985;SDS011;56035;37.534;-122.308;2023-04-25T03:16:39;20.80;;;3.77;;
68985;SDS011;56035;37.534;-122.308;2023-04-25T03:19:05;15.32;;;3.50;;
68985;SDS011;56035;37.534;-122.308;2023-04-25T03:21:32;27.90;;;4.07;;
68985;SDS011;56035;37.534;-122.308;2023-04-25T03:24:01;18.80;;;3.80;;
68985;SDS011;56035;37.534;-122.308;2023-04-25T03:26:28;14.23;;;3.47;;
68985;SDS011;56035;37.534;-122.308;2023-04-25T03:28:54;21.35;;;3.50;;
68985;SDS011;56035;37.534;-122.308;2023-04-25T03:31:21;20.88;;;3.17;;
68985;SDS011;56035;37.534;-122.308;2023-04-25T03:33:47;17.75;;;3.50;;
68985;SDS011;56035;37.534;-122.308;2023-04-25T03:36:14;22.60;;;4.00;;
68985;SDS011;56035;37.534;-122.308;2023-04-25T03:38:40;18.88;;;3.10;;
68985;SDS011;56035;37.534;-122.308;2023-04-25T03:41:09;21.97;;;4.13;;
68985;SDS011;56035;37.534;-122.308;2023-04-25T03:43:35;18.67;;;3.78;;
68985;SDS011;56035;37.534;-122.308;2023-04-25T03:46:01;21.85;;;4.28;;
68985;SDS011;56035;37.534;-122.308;2023-04-25T03:48:28;21.00;;;4.45;;
68985;SDS011;56035;37.534;-122.308;2023-04-25T03:50:54;23.02;;;4.40;;
68985;SDS011;56035;37.534;-122.308;2023-04-25T03:53:20;23.30;;;4.35;;
68985;SDS011;56035;37.534;-122.308;2023-04-25T03:55:47;27.02;;;3.90;;
68985;SDS011;56035;37.534;-122.308;2023-04-25T03:58:13;24.77;;;4.18;;
68985;SDS011;56035;37.534;-122.308;2023-04-25T04:00:39;18.73;;;4.78;;
68985;SDS011;56035;37.534;-122.308;2023-04-25T04:03:06;20.58;;;4.35;;
68985;SDS011;56035;37.534;-122.308;2023-04-25T04:05:32;24.73;;;4.13;;
68985;SDS011;56035;37.534;-122.308;2023-04-25T04:07:58;23.17;;;5.65;;
68985;SDS011;56035;37.534;-122.308;2023-04-25T04:10:25;19.15;;;4.30;;
68985;SDS011;56035;37.534;-122.308;2023-04-25T04:12:51;25.88;;;5.05;;
68985;SDS011;56035;37.534;-122.308;2023-04-25T04:15:17;24.20;;;6.55;;
68985;SDS011;56035;37.534;-122.308;2023-04-25T04:17:43;22.15;;;3.53;;
68985;SDS011;56035;37.534;-122.308;2023-04-25T04:20:10;24.52;;;4.72;;
68985;SDS011;56035;37.534;-122.308;2023-04-25T04:22:36;16.35;;;3.15;;
68985;SDS011;56035;37.534;-122.308;2023-04-25T04:25:03;22.83;;;3.92;;
68985;SDS011;56035;37.534;-122.308;2023-04-25T04:27:31;24.70;;;4.00;;
68985;SDS011;56035;37.534;-122.308;2023-04-25T04:29:58;18.67;;;3.90;;
68985;SDS011;56035;37.534;-122.308;2023-04-25T04:32:24;24.65;;;4.53;;
68985;SDS011;56035;37.534;-122.308;2023-04-25T04:34:50;22.20;;;4.18;;
68985;SDS011;56035;37.534;-122.308;2023-04-25T04:37:17;20.50;;;4.28;;
68985;SDS011;56035;37.534;-122.308;2023-04-25T04:39:44;23.23;;;4.45;;
68985;SDS011;56035;37.534;-122.308;2023-04-25T04:42:10;22.05;;;4.45;;
68985;SDS011;56035;37.534;-122.308;2023-04-25T04:44:37;22.77;;;5.05;;
68985;SDS011;56035;37.534;-122.308;2023-04-25T04:47:04;26.60;;;5.00;;
68985;SDS011;56035;37.534;-122.308;2023-04-25T04:49:31;26.13;;;5.00;;
68985;SDS011;56035;37.534;-122.308;2023-04-25T04:51:58;29.42;;;4.45;;
68985;SDS011;56035;37.534;-122.308;2023-04-25T04:54:25;21.07;;;3.93;;
68985;SDS011;56035;37.534;-122.308;2023-04-25T04:56:52;28.15;;;5.50;;
68985;SDS011;56035;37.534;-122.308;2023-04-25T04:59:18;23.85;;;4.57;;
68985;SDS011;56035;37.534;-122.308;2023-04-25T05:01:44;19.10;;;4.05;;
68985;SDS011;56035;37.534;-122.308;2023-04-25T05:04:12;23.60;;;5.37;;
68985;SDS011;56035;37.534;-122.308;2023-04-25T05:06:38;27.95;;;4.88;;
68985;SDS011;56035;37.534;-122.308;2023-04-25T05:09:04;24.30;;;5.20;;
68985;SDS011;56035;37.534;-122.308;2023-04-25T05:11:31;26.17;;;5.32;;
68985;SDS011;56035;37.534;-122.308;2023-04-25T05:13:57;28.75;;;5.43;;
68985;SDS011;56035;37.534;-122.308;2023-04-25T05:16:23;25.55;;;4.80;;
68985;SDS011;56035;37.534;-122.308;2023-04-25T05:18:49;28.70;;;4.50;;
68985;SDS011;56035;37.534;-122.308;2023-04-25T05:21:15;26.55;;;4.90;;
68985;SDS011;56035;37.534;-122.308;2023-04-25T05:23:42;25.88;;;4.90;;
68985;SDS011;56035;37.534;-122.308;2023-04-25T05:26:09;30.80;;;4.50;;
68985;SDS011;56035;37.534;-122.308;2023-04-25T05:28:42;23.73;;;4.80;;
68985;SDS011;56035;37.534;-122.308;2023-04-25T05:31:11;23.20;;;4.67;;
68985;SDS011;56035;37.534;-122.308;2023-04-25T05:33:38;25.43;;;4.47;;
68985;SDS011;56035;37.534;-122.308;2023-04-25T05:36:04;25.08;;;4.78;;
68985;SDS011;56035;37.534;-122.308;2023-04-25T05:38:30;27.45;;;4.45;;
68985;SDS011;56035;37.534;-122.308;2023-04-25T05:40:57;32.10;;;4.45;;
68985;SDS011;56035;37.534;-122.308;2023-04-25T05:43:23;29.85;;;5.30;;
68985;SDS011;56035;37.534;-122.308;2023-04-25T05:45:49;25.13;;;4.30;;
68985;SDS011;56035;37.534;-122.308;2023-04-25T05:48:15;27.13;;;4.40;;
68985;SDS011;56035;37.534;-122.308;2023-04-25T05:50:42;41.42;;;5.82;;
68985;SDS011;56035;37.534;-122.308;2023-04-25T05:53:08;28.13;;;4.53;;
68985;SDS011;56035;37.534;-122.308;2023-04-25T05:55:34;36.83;;;6.18;;
68985;SDS011;56035;37.534;-122.308;2023-04-25T05:58:00;23.45;;;4.30;;
68985;SDS011;56035;37.534;-122.308;2023-04-25T06:00:27;37.47;;;6.10;;
68985;SDS011;56035;37.534;-122.308;2023-04-25T06:02:53;28.23;;;4.82;;
68985;SDS011;56035;37.534;-122.308;2023-04-25T06:05:20;26.50;;;4.47;;
68985;SDS011;56035;37.534;-122.308;2023-04-25T06:07:46;34.33;;;6.13;;
68985;SDS011;56035;37.534;-122.308;2023-04-25T06:10:12;24.30;;;4.35;;
68985;SDS011;56035;37.534;-122.308;2023-04-25T06:12:38;28.52;;;4.97;;
68985;SDS011;56035;37.534;-122.308;2023-04-25T06:15:05;24.52;;;4.35;;
68985;SDS011;56035;37.534;-122.308;2023-04-25T06:17:32;34.90;;;5.13;;
68985;SDS011;56035;37.534;-122.308;2023-04-25T06:19:59;25.02;;;5.35;;
68985;SDS011;56035;37.534;-122.308;2023-04-25T06:22:25;30.30;;;4.95;;
68985;SDS011;56035;37.534;-122.308;2023-04-25T06:24:51;26.42;;;4.80;;
68985;SDS011;56035;37.534;-122.308;2023-04-25T06:27:18;30.48;;;4.65;;
68985;SDS011;56035;37.534;-122.308;2023-04-25T06:29:44;23.67;;;4.10;;
68985;SDS011;56035;37.534;-122.308;2023-04-25T06:32:10;27.13;;;4.25;;
68985;SDS011;56035;37.534;-122.308;2023-04-25T06:34:36;34.70;;;5.22;;
68985;SDS011;56035;37.534;-122.308;2023-04-25T06:37:02;21.33;;;5.15;;
68985;SDS011;56035;37.534;-122.308;2023-04-25T06:39:29;29.35;;;4.40;;
68985;SDS011;56035;37.534;-122.308;2023-04-25T06:41:55;32.75;;;5.60;;
68985;SDS011;56035;37.534;-122.308;2023-04-25T06:44:21;28.15;;;5.07;;
68985;SDS011;56035;37.534;-122.308;2023-04-25T06:46:49;35.10;;;5.73;;
68985;SDS011;56035;37.534;-122.308;2023-04-25T06:49:15;34.45;;;4.53;;
68985;SDS011;56035;37.534;-122.308;2023-04-25T06:51:41;26.58;;;5.80;;
68985;SDS011;56035;37.534;-122.308;2023-04-25T06:54:07;31.05;;;5.25;;
68985;SDS011;56035;37.534;-122.308;2023-04-25T06:56:34;28.02;;;4.97;;
68985;SDS011;56035;37.534;-122.308;2023-04-25T06:59:00;35.03;;;6.05;;
68985;SDS011;56035;37.534;-122.308;2023-04-25T07:01:26;34.83;;;5.38;;
68985;SDS011;56035;37.534;-122.308;2023-04-25T07:03:53;26.48;;;4.32;;
68985;SDS011;56035;37.534;-122.308;2023-04-25T07:06:19;34.22;;;5.60;;
68985;SDS011;56035;37.534;-122.308;2023-04-25T07:08:45;42.50;;;6.90;;
68985;SDS011;56035;37.534;-122.308;2023-04-25T07:11:11;36.50;;;5.88;;
68985;SDS011;56035;37.534;-122.308;2023-04-25T07:13:37;43.50;;;6.38;;
68985;SDS011;56035;37.534;-122.308;2023-04-25T07:16:04;30.42;;;6.18;;
68985;SDS011;56035;37.534;-122.308;2023-04-25T07:18:30;39.90;;;6.15;;
68985;SDS011;56035;37.534;-122.308;2023-04-25T07:20:56;30.85;;;5.13;;
68985;SDS011;56035;37.534;-122.308;2023-04-25T07:23:22;32.13;;;5.25;;
68985;SDS011;56035;37.534;-122.308;2023-04-25T07:25:49;32.20;;;5.82;;
68985;SDS011;56035;37.534;-122.308;2023-04-25T07:28:15;35.83;;;6.03;;
68985;SDS011;56035;37.534;-122.308;2023-04-25T07:30:41;31.10;;;5.13;;
68985;SDS011;56035;37.534;-122.308;2023-04-25T07:33:07;32.08;;;5.47;;
68985;SDS011;56035;37.534;-122.308;2023-04-25T07:35:33;33.05;;;5.90;;
68985;SDS011;56035;37.534;-122.308;2023-04-25T07:38:01;30.65;;;5.72;;
68985;SDS011;56035;37.534;-122.308;2023-04-25T07:40:28;25.90;;;5.07;;
68985;SDS011;56035;37.534;-122.308;2023-04-25T07:42:55;31.87;;;5.13;;
68985;SDS011;56035;37.534;-122.308;2023-04-25T07:45:21;27.65;;;4.60;;
68985;SDS011;56035;37.534;-122.308;2023-04-25T07:47:48;34.60;;;5.80;;
68985;SDS011;56035;37.534;-122.308;2023-04-25T07:50:15;29.15;;;4.60;;
68985;SDS011;56035;37.534;-122.308;2023-04-25T07:52:41;26.55;;;4.93;;
68985;SDS011;56035;37.534;-122.308;2023-04-25T07:55:07;25.17;;;6.03;;
68985;SDS011;56035;37.534;-122.308;2023-04-25T07:57:34;30.50;;;5.10;;
68985;SDS011;56035;37.534;-122.308;2023-04-25T08:00:00;29.50;;;5.13;;
68985;SDS011;56035;37.534;-122.308;2023-04-25T08:02:27;23.48;;;4.03;;
68985;SDS011;56035;37.534;-122.308;2023-04-25T08:04:53;36.53;;;5.82;;
68985;SDS011;56035;37.534;-122.308;2023-04-25T08:07:20;28.45;;;4.60;;
68985;SDS011;56035;37.534;-122.308;2023-04-25T08:09:46;33.78;;;5.20;;
68985;SDS011;56035;37.534;-122.308;2023-04-25T08:12:12;37.28;;;6.03;;
68985;SDS011;56035;37.534;-122.308;2023-04-25T08:14:38;31.90;;;4.97;;
68985;SDS011;56035;37.534;-122.308;2023-04-25T08:17:05;24.45;;;4.70;;
68985;SDS011;56035;37.534;-122.308;2023-04-25T08:19:31;30.35;;;5.25;;
68985;SDS011;56035;37.534;-122.308;2023-04-25T08:21:57;27.88;;;4.93;;
68985;SDS011;56035;37.534;-122.308;2023-04-25T08:24:23;32.35;;;4.47;;
68985;SDS011;56035;37.534;-122.308;2023-04-25T08:26:50;31.92;;;5.55;;
68985;SDS011;56035;37.534;-122.308;2023-04-25T08:29:17;31.93;;;4.97;;
68985;SDS011;56035;37.534;-122.308;2023-04-25T08:31:43;31.15;;;4.72;;
68985;SDS011;56035;37.534;-122.308;2023-04-25T08:34:09;31.63;;;5.07;;
68985;SDS011;56035;37.534;-122.308;2023-04-25T08:36:36;30.45;;;6.30;;
68985;SDS011;56035;37.534;-122.308;2023-04-25T08:39:02;31.67;;;5.22;;
68985;SDS011;56035;37.534;-122.308;2023-04-25T08:41:28;38.80;;;6.10;;
68985;SDS011;56035;37.534;-122.308;2023-04-25T08:43:55;35.10;;;5.22;;
68985;SDS011;56035;37.534;-122.308;2023-04-25T08:46:25;29.97;;;4.30;;
68985;SDS011;56035;37.534;-122.308;2023-04-25T08:51:21;37.43;;;5.33;;
68985;SDS011;56035;37.534;-122.308;2023-04-25T08:53:50;35.03;;;6.70;;
68985;SDS011;56035;37.534;-122.308;2023-04-25T08:56:17;25.43;;;5.13;;
68985;SDS011;56035;37.534;-122.308;2023-04-25T08:58:47;29.37;;;4.33;;
68985;SDS011;56035;37.534;-122.308;2023-04-25T09:01:15;29.37;;;4.60;;
68985;SDS011;56035;37.534;-122.308;2023-04-25T09:03:43;40.47;;;6.82;;
68985;SDS011;56035;37.534;-122.308;2023-04-25T09:06:12;37.67;;;5.87;;
68985;SDS011;56035;37.534;-122.308;2023-04-25T09:08:41;47.33;;;6.00;;
68985;SDS011;56035;37.534;-122.308;2023-04-25T09:11:07;33.67;;;4.97;;
68985;SDS011;56035;37.534;-122.308;2023-04-25T09:13:33;35.03;;;5.45;;
68985;SDS011;56035;37.534;-122.308;2023-04-25T09:16:00;32.70;;;6.07;;
68985;SDS011;56035;37.534;-122.308;2023-04-25T09:18:29;33.88;;;5.35;;
68985;SDS011;56035;37.534;-122.308;2023-04-25T09:21:17;40.80;;;6.20;;
68985;SDS011;56035;37.534;-122.308;2023-04-25T09:23:48;32.77;;;4.73;;
68985;SDS011;56035;37.534;-122.308;2023-04-25T09:26:20;34.87;;;5.90;;
68985;SDS011;56035;37.534;-122.308;2023-04-25T09:28:46;36.00;;;5.30;;
68985;SDS011;56035;37.534;-122.308;2023-04-25T09:31:22;34.07;;;5.23;;
68985;SDS011;56035;37.534;-122.308;2023-04-25T09:33:58;42.63;;;6.00;;
68985;SDS011;56035;37.534;-122.308;2023-04-25T09:36:26;36.27;;;5.00;;
68985;SDS011;56035;37.534;-122.308;2023-04-25T09:38:53;41.00;;;6.10;;
68985;SDS011;56035;37.534;-122.308;2023-04-25T09:41:24;28.53;;;5.80;;
68985;SDS011;56035;37.534;-122.308;2023-04-25T09:43:50;38.83;;;6.83;;
68985;SDS011;56035;37.534;-122.308;2023-04-25T09:46:17;39.05;;;6.80;;
68985;SDS011;56035;37.534;-122.308;2023-04-25T09:48:52;42.10;;;5.70;;
68985;SDS011;56035;37.534;-122.308;2023-04-25T09:51:19;36.27;;;6.20;;
68985;SDS011;56035;37.534;-122.308;2023-04-25T09:53:45;31.48;;;5.40;;
68985;SDS011;56035;37.534;-122.308;2023-04-25T09:56:15;36.07;;;6.47;;
68985;SDS011;56035;37.534;-122.308;2023-04-25T09:58:42;32.63;;;6.22;;
68985;SDS011;56035;37.534;-122.308;2023-04-25T10:01:09;38.80;;;6.53;;
68985;SDS011;56035;37.534;-122.308;2023-04-25T10:03:37;42.53;;;7.50;;
68985;SDS011;56035;37.534;-122.308;2023-04-25T10:06:08;45.20;;;6.20;;
68985;SDS011;56035;37.534;-122.308;2023-04-25T10:08:39;35.30;;;6.37;;
68985;SDS011;56035;37.534;-122.308;2023-04-25T10:11:08;37.93;;;6.00;;
68985;SDS011;56035;37.534;-122.308;2023-04-25T10:16:02;35.73;;;5.33;;
68985;SDS011;56035;37.534;-122.308;2023-04-25T10:18:30;40.93;;;5.70;;
68985;SDS011;56035;37.534;-122.308;2023-04-25T10:21:00;41.60;;;5.53;;
68985;SDS011;56035;37.534;-122.308;2023-04-25T10:23:30;40.17;;;6.60;;
68985;SDS011;56035;37.534;-122.308;2023-04-25T10:25:57;40.83;;;5.80;;
68985;SDS011;56035;37.534;-122.308;2023-04-25T10:28:25;47.57;;;7.03;;
68985;SDS011;56035;37.534;-122.308;2023-04-25T10:30:58;38.60;;;5.47;;
68985;SDS011;56035;37.534;-122.308;2023-04-25T10:33:35;44.53;;;5.77;;
68985;SDS011;56035;37.534;-122.308;2023-04-25T10:36:18;33.83;;;5.25;;
68985;SDS011;56035;37.534;-122.308;2023-04-25T10:38:49;39.83;;;6.47;;
68985;SDS011;56035;37.534;-122.308;2023-04-25T10:41:19;31.43;;;5.50;;
68985;SDS011;56035;37.534;-122.308;2023-04-25T10:43:48;41.47;;;5.83;;
68985;SDS011;56035;37.534;-122.308;2023-04-25T10:46:25;34.07;;;5.47;;
68985;SDS011;56035;37.534;-122.308;2023-04-25T10:48:53;31.17;;;5.00;;
68985;SDS011;56035;37.534;-122.308;2023-04-25T10:51:26;38.13;;;6.47;;
68985;SDS011;56035;37.534;-122.308;2023-04-25T10:54:00;37.37;;;5.63;;
68985;SDS011;56035;37.534;-122.308;2023-04-25T10:56:29;31.97;;;5.17;;
68985;SDS011;56035;37.534;-122.308;2023-04-25T10:59:10;29.27;;;4.70;;
68985;SDS011;56035;37.534;-122.308;2023-04-25T11:01:38;27.70;;;5.73;;
68985;SDS011;56035;37.534;-122.308;2023-04-25T11:04:05;31.10;;;5.07;;
68985;SDS011;56035;37.534;-122.308;2023-04-25T11:09:10;20.52;;;3.53;;
68985;SDS011;56035;37.534;-122.308;2023-04-25T11:11:40;48.17;;;6.77;;
68985;SDS011;56035;37.534;-122.308;2023-04-25T11:14:07;28.75;;;4.75;;
68985;SDS011;56035;37.534;-122.308;2023-04-25T11:16:33;25.70;;;4.75;;
68985;SDS011;56035;37.534;-122.308;2023-04-25T11:19:01;28.93;;;4.63;;
68985;SDS011;56035;37.534;-122.308;2023-04-25T11:21:28;31.70;;;5.90;;
68985;SDS011;56035;37.534;-122.308;2023-04-25T11:23:57;30.50;;;4.87;;
68985;SDS011;56035;37.534;-122.308;2023-04-25T11:26:24;35.47;;;5.63;;
68985;SDS011;56035;37.534;-122.308;2023-04-25T11:28:51;30.23;;;5.13;;
68985;SDS011;56035;37.534;-122.308;2023-04-25T11:31:20;41.85;;;6.03;;
68985;SDS011;56035;37.534;-122.308;2023-04-25T11:33:47;37.90;;;6.33;;
68985;SDS011;56035;37.534;-122.308;2023-04-25T11:36:13;29.08;;;6.10;;
68985;SDS011;56035;37.534;-122.308;2023-04-25T11:38:39;32.22;;;6.22;;
68985;SDS011;56035;37.534;-122.308;2023-04-25T11:41:05;30.98;;;5.00;;
68985;SDS011;56035;37.534;-122.308;2023-04-25T11:43:32;32.97;;;4.47;;
68985;SDS011;56035;37.534;-122.308;2023-04-25T11:45:58;33.45;;;5.38;;
68985;SDS011;56035;37.534;-122.308;2023-04-25T11:48:25;36.50;;;5.78;;
68985;SDS011;56035;37.534;-122.308;2023-04-25T11:50:51;31.08;;;4.68;;
68985;SDS011;56035;37.534;-122.308;2023-04-25T11:53:19;29.13;;;6.37;;
68985;SDS011;56035;37.534;-122.308;2023-04-25T11:55:45;27.25;;;4.53;;
68985;SDS011;56035;37.534;-122.308;2023-04-25T11:58:11;26.58;;;5.15;;
68985;SDS011;56035;37.534;-122.308;2023-04-25T12:00:39;32.53;;;5.17;;
68985;SDS011;56035;37.534;-122.308;2023-04-25T12:03:08;27.97;;;4.73;;
68985;SDS011;56035;37.534;-122.308;2023-04-25T12:05:35;28.23;;;5.00;;
68985;SDS011;56035;37.534;-122.308;2023-04-25T12:08:12;35.33;;;5.33;;
68985;SDS011;56035;37.534;-122.308;2023-04-25T12:10:40;25.20;;;5.00;;
68985;SDS011;56035;37.534;-122.308;2023-04-25T12:16:03;38.10;;;5.83;;
68985;SDS011;56035;37.534;-122.308;2023-04-25T12:18:29;33.33;;;4.63;;
68985;SDS011;56035;37.534;-122.308;2023-04-25T12:20:56;26.88;;;4.30;;
68985;SDS011;56035;37.534;-122.308;2023-04-25T12:23:26;21.30;;;4.73;;
68985;SDS011;56035;37.534;-122.308;2023-04-25T12:25:53;22.13;;;4.57;;
68985;SDS011;56035;37.534;-122.308;2023-04-25T12:28:21;28.73;;;4.80;;
68985;SDS011;56035;37.534;-122.308;2023-04-25T12:30:56;23.67;;;4.40;;
68985;SDS011;56035;37.534;-122.308;2023-04-25T12:33:31;27.60;;;4.47;;
68985;SDS011;56035;37.534;-122.308;2023-04-25T12:35:57;22.43;;;4.00;;
68985;SDS011;56035;37.534;-122.308;2023-04-25T12:38:28;26.67;;;4.73;;
68985;SDS011;56035;37.534;-122.308;2023-04-25T12:41:14;27.87;;;4.70;;
68985;SDS011;56035;37.534;-122.308;2023-04-25T12:43:41;22.38;;;4.13;;
68985;SDS011;56035;37.534;-122.308;2023-04-25T12:46:07;24.33;;;4.53;;
68985;SDS011;56035;37.534;-122.308;2023-04-25T12:48:33;23.55;;;4.20;;
68985;SDS011;56035;37.534;-122.308;2023-04-25T12:50:59;25.48;;;4.55;;
68985;SDS011;56035;37.534;-122.308;2023-04-25T12:53:26;22.25;;;3.80;;
68985;SDS011;56035;37.534;-122.308;2023-04-25T12:55:52;24.38;;;5.10;;
68985;SDS011;56035;37.534;-122.308;2023-04-25T12:58:18;23.23;;;4.25;;
68985;SDS011;56035;37.534;-122.308;2023-04-25T13:00:45;18.10;;;3.88;;
68985;SDS011;56035;37.534;-122.308;2023-04-25T13:03:11;16.80;;;3.30;;
68985;SDS011;56035;37.534;-122.308;2023-04-25T13:05:38;20.48;;;3.17;;
68985;SDS011;56035;37.534;-122.308;2023-04-25T13:10:31;23.87;;;3.83;;
68985;SDS011;56035;37.534;-122.308;2023-04-25T13:12:59;34.87;;;4.73;;
68985;SDS011;56035;37.534;-122.308;2023-04-25T13:15:26;23.27;;;4.43;;
68985;SDS011;56035;37.534;-122.308;2023-04-25T13:17:53;31.95;;;5.10;;
68985;SDS011;56035;37.534;-122.308;2023-04-25T13:20:19;21.83;;;4.43;;
68985;SDS011;56035;37.534;-122.308;2023-04-25T13:22:47;32.97;;;5.23;;
68985;SDS011;56035;37.534;-122.308;2023-04-25T13:25:13;30.58;;;5.53;;
68985;SDS011;56035;37.534;-122.308;2023-04-25T13:27:40;25.05;;;4.45;;
68985;SDS011;56035;37.534;-122.308;2023-04-25T13:30:09;25.73;;;4.47;;
68985;SDS011;56035;37.534;-122.308;2023-04-25T13:32:36;28.00;;;4.85;;
68985;SDS011;56035;37.534;-122.308;2023-04-25T13:37:30;21.00;;;4.53;;
68985;SDS011;56035;37.534;-122.308;2023-04-25T13:40:00;25.70;;;4.80;;
68985;SDS011;56035;37.534;-122.308;2023-04-25T13:42:32;22.20;;;5.40;;
68985;SDS011;56035;37.534;-122.308;2023-04-25T13:44:59;27.80;;;4.93;;
68985;SDS011;56035;37.534;-122.308;2023-04-25T13:47:25;30.55;;;5.80;;
68985;SDS011;56035;37.534;-122.308;2023-04-25T13:49:52;22.80;;;4.50;;
68985;SDS011;56035;37.534;-122.308;2023-04-25T13:54:46;29.80;;;5.13;;
68985;SDS011;56035;37.534;-122.308;2023-04-25T13:57:12;36.25;;;6.00;;
68985;SDS011;56035;37.534;-122.308;2023-04-25T13:59:39;37.15;;;5.63;;
68985;SDS011;56035;37.534;-122.308;2023-04-25T14:02:06;28.77;;;4.67;;
68985;SDS011;56035;37.534;-122.308;2023-04-25T14:04:33;27.38;;;5.50;;
68985;SDS011;56035;37.534;-122.308;2023-04-25T14:06:59;28.92;;;4.22;;
68985;SDS011;56035;37.534;-122.308;2023-04-25T14:09:27;27.40;;;4.93;;
68985;SDS011;56035;37.534;-122.308;2023-04-25T14:11:54;24.90;;;4.82;;
68985;SDS011;56035;37.534;-122.308;2023-04-25T14:14:21;30.13;;;5.67;;
68985;SDS011;56035;37.534;-122.308;2023-04-25T14:16:48;34.73;;;6.33;;
68985;SDS011;56035;37.534;-122.308;2023-04-25T14:19:19;33.10;;;5.83;;
68985;SDS011;56035;37.534;-122.308;2023-04-25T14:21:46;36.17;;;6.87;;
68985;SDS011;56035;37.534;-122.308;2023-04-25T14:24:13;38.67;;;7.07;;